createdAt,value
2018-01-25T00:00:58.500Z,53.5
2018-01-25T00:10:58.191Z,44.8
2018-01-25T00:20:58.083Z,35.5
2018-01-25T00:30:57.874Z,28.4
2018-01-25T00:40:57.735Z,26.8
2018-01-25T00:50:58.486Z,22.0
2018-01-25T01:00:58.308Z,21.8
2018-01-25T01:10:58.138Z,25.9
2018-01-25T01:20:58.078Z,24.0
2018-01-25T01:30:57.808Z,24.8
2018-01-25T01:40:57.577Z,20.7
2018-01-25T01:50:58.355Z,23.2
2018-01-25T02:00:58.138Z,42.0
2018-01-25T02:10:57.959Z,60.1
2018-01-25T02:20:57.775Z,60.1
2018-01-25T02:30:58.536Z,58.1
2018-01-25T02:40:58.309Z,71.5
2018-01-25T02:50:58.052Z,66.4
2018-01-25T03:00:58.039Z,65.9
2018-01-25T03:10:57.802Z,65.9
2018-01-25T03:20:57.678Z,63.7
2018-01-25T03:30:58.426Z,70.0
2018-01-25T03:40:58.158Z,68.9
2018-01-25T03:50:57.909Z,72.7
2018-01-25T04:00:57.840Z,80.3
2018-01-25T04:10:57.697Z,67.9
2018-01-25T04:20:57.662Z,61.5
2018-01-25T04:30:58.402Z,61.8
2018-01-25T04:40:58.216Z,62.0
2018-01-25T04:50:57.933Z,66.1
2018-01-25T05:00:57.672Z,58.9
2018-01-25T05:10:58.430Z,72.2
2018-01-25T05:20:58.267Z,67.7
2018-01-25T05:30:57.596Z,75.9
2018-01-25T05:40:58.294Z,60.5
2018-01-25T05:50:58.004Z,50.8
2018-01-25T06:00:57.693Z,75.1
2018-01-25T06:10:58.508Z,85.5
2018-01-25T06:20:58.268Z,74.8
2018-01-25T06:30:57.974Z,70.6
2018-01-25T06:40:57.665Z,82.1
2018-01-25T06:50:58.400Z,61.4
2018-01-25T07:00:58.167Z,97.4
2018-01-25T07:10:57.866Z,86.7
2018-01-25T07:20:57.868Z,85.3
2018-01-25T07:30:57.590Z,107.6
2018-01-25T07:40:58.462Z,74.1
2018-01-25T07:50:58.172Z,44.7
2018-01-25T08:00:57.845Z,40.2
2018-01-25T08:10:57.630Z,52.7
2018-01-25T08:20:58.369Z,78.2
2018-01-25T08:30:57.995Z,108.3
2018-01-25T08:40:57.665Z,82.3
2018-01-25T08:50:58.396Z,114.7
2018-01-25T09:00:58.084Z,79.6
2018-01-25T09:10:57.914Z,82.1
2018-01-25T09:20:57.798Z,100.9
2018-01-25T09:30:58.551Z,104.6
2018-01-25T09:40:58.330Z,113.6
2018-01-25T09:50:58.059Z,78.1
2018-01-25T10:00:57.816Z,71.2
2018-01-25T10:10:57.596Z,68.6
2018-01-25T10:20:58.526Z,92.6
2018-01-25T10:30:58.290Z,80.8
2018-01-25T10:40:58.039Z,72.3
2018-01-25T10:50:57.770Z,63.0
2018-01-25T11:00:58.516Z,66.1
2018-01-25T11:10:58.338Z,50.3
2018-01-25T11:20:58.246Z,50.6
2018-01-25T11:30:58.003Z,47.5
2018-01-25T11:40:57.778Z,48.8
2018-01-25T11:50:58.548Z,43.3
2018-01-25T12:00:58.316Z,45.6
2018-01-25T12:10:58.199Z,44.6
2018-01-25T12:20:58.158Z,42.9
2018-01-25T12:30:57.987Z,50.7
2018-01-25T12:40:57.754Z,46.6
2018-01-25T12:50:58.552Z,45.8
2018-01-25T13:00:58.303Z,44.4
2018-01-25T13:10:58.016Z,47.6
2018-01-25T13:20:57.934Z,46.6
2018-01-25T13:30:57.730Z,44.5
2018-01-25T13:40:58.490Z,45.0
2018-01-25T13:50:58.258Z,39.3
2018-01-25T14:00:58.003Z,38.8
2018-01-25T14:10:57.790Z,34.9
2018-01-25T14:20:57.676Z,36.9
2018-01-25T14:30:58.437Z,41.3
2018-01-25T14:40:58.191Z,45.3
2018-01-25T14:50:57.931Z,57.6
2018-01-25T15:00:57.724Z,54.1
2018-01-25T15:10:58.513Z,64.5
2018-01-25T15:20:58.386Z,68.7
2018-01-25T15:30:58.180Z,72.5
2018-01-25T15:40:57.943Z,79.6
2018-01-25T15:50:57.672Z,71.6
2018-01-25T16:00:58.392Z,89.2
2018-01-25T16:10:58.133Z,85.0
2018-01-25T16:20:57.881Z,103.2
2018-01-25T16:30:57.544Z,122.8
2018-01-25T16:40:58.319Z,131.4
2018-01-25T16:50:58.057Z,123.7
2018-01-25T17:00:57.730Z,130.3
2018-01-25T17:10:58.801Z,109.8
2018-01-25T17:20:57.675Z,126.2
2018-01-25T17:30:58.427Z,132.6
2018-01-25T17:40:58.191Z,138.9
2018-01-25T17:50:57.952Z,146.6
2018-01-25T18:00:57.677Z,166.7
2018-01-25T18:10:58.462Z,162.9
2018-01-25T18:20:58.365Z,153.8
2018-01-25T18:30:58.682Z,166.0
2018-01-25T18:40:58.462Z,185.1
2018-01-25T18:50:58.232Z,189.9
2018-01-25T19:00:58.009Z,200.6
2018-01-25T19:10:57.906Z,196.7
2018-01-25T19:20:57.847Z,198.0
2018-01-25T19:30:58.658Z,183.1
2018-01-25T19:40:58.484Z,184.6
2018-01-25T19:50:58.336Z,200.4
2018-01-25T20:00:58.597Z,203.3
2018-01-25T20:10:58.609Z,181.3
2018-01-25T20:20:58.558Z,189.5
2018-01-25T20:30:58.471Z,185.0
2018-01-25T20:40:58.385Z,214.8
2018-01-25T20:50:58.245Z,194.7
2018-01-25T21:00:58.221Z,172.0
2018-01-25T21:10:57.965Z,166.5
2018-01-25T21:20:57.851Z,173.7
2018-01-25T21:30:58.649Z,176.3
2018-01-25T21:40:58.403Z,182.5
2018-01-25T21:50:58.143Z,221.9
2018-01-25T22:00:57.884Z,226.7
2018-01-25T22:10:58.593Z,226.8
2018-01-25T22:20:58.420Z,234.1
2018-01-25T22:30:58.110Z,227.4
2018-01-25T22:40:57.819Z,237.0
2018-01-25T22:50:58.504Z,241.9
2018-01-25T23:00:58.276Z,252.8
2018-01-25T23:10:58.107Z,249.6
2018-01-25T23:20:57.980Z,247.7
2018-01-25T23:30:57.708Z,236.9
2018-01-25T23:40:58.416Z,241.3
2018-01-25T23:50:58.208Z,220.5
